Time;durP1;ratioP1;P1;durP2;ratioP2;P2;SDS_P1;SDS_P2;PMS_P1;PMS_P2;Temp;Humidity;BMP_temperature;BMP_pressure;BME280_temperature;BME280_humidity;BME280_pressure;Samples;Min_cycle;Max_cycle;Signal;HPM_P1;HPM_P2
2024/03/18 00:00:57;;;;;;;30.77;13.35;;;15.80;99.90;;;;;;7387269;19;20007;-75
2024/03/18 00:03:27;;;;;;;32.10;15.60;;;15.80;99.90;;;;;;7385637;19;20358;-75
2024/03/18 00:05:58;;;;;;;35.33;15.15;;;15.80;99.90;;;;;;7406787;19;20018;-75
2024/03/18 00:08:27;;;;;;;26.15;14.68;;;15.90;99.90;;;;;;7385866;19;20029;-75
2024/03/18 00:10:57;;;;;;;29.35;14.65;;;15.90;99.90;;;;;;7385601;19;20024;-75
2024/03/18 00:13:28;;;;;;;31.75;15.80;;;15.90;99.90;;;;;;7384131;19;20025;-75
2024/03/18 00:16:01;;;;;;;25.57;13.97;;;15.90;99.90;;;;;;7386021;19;20010;-74
2024/03/18 00:18:29;;;;;;;22.02;13.50;;;15.90;99.90;;;;;;7385426;19;20028;-75
2024/03/18 00:21:01;;;;;;;27.52;13.88;;;15.90;99.90;;;;;;7407898;19;20018;-75
2024/03/18 00:23:30;;;;;;;29.35;14.70;;;15.90;99.90;;;;;;7385636;19;20436;-75
2024/03/18 00:26:02;;;;;;;26.33;13.57;;;15.90;99.90;;;;;;7386009;19;20002;-76
2024/03/18 00:28:34;;;;;;;25.83;13.60;;;15.80;99.90;;;;;;7384152;19;20011;-77
2024/03/18 00:31:05;;;;;;;22.25;12.10;;;15.80;99.90;;;;;;7385842;19;20062;-76
2024/03/18 00:33:35;;;;;;;;;;;15.80;99.90;;;;;;7386744;19;20261;-76
2024/03/18 00:36:07;;;;;;;20.80;12.00;;;15.90;99.90;;;;;;7407861;19;19914;-76
2024/03/18 00:38:36;;;;;;;24.50;12.23;;;15.90;99.90;;;;;;7385239;19;20010;-76
2024/03/18 00:43:45;;;;;;;25.45;13.63;;;15.90;99.90;;;;;;7383457;19;20074;-76
2024/03/18 00:46:12;;;;;;;27.55;13.77;;;15.90;99.90;;;;;;7384825;19;20003;-76
2024/03/18 00:48:42;;;;;;;28.85;14.90;;;15.90;99.90;;;;;;7384142;19;20027;-76
2024/03/18 00:51:13;;;;;;;36.35;14.88;;;15.90;99.90;;;;;;7407502;19;20020;-76
2024/03/18 00:53:44;;;;;;;22.25;12.52;;;15.80;99.90;;;;;;7383808;19;20021;-75
2024/03/18 00:56:12;;;;;;;26.00;13.70;;;15.80;99.90;;;;;;7382135;19;20011;-75
2024/03/18 00:58:42;;;;;;;24.75;13.60;;;15.80;99.90;;;;;;7383655;19;20014;-78
2024/03/18 01:01:11;;;;;;;27.65;12.57;;;15.80;99.90;;;;;;7381432;19;20010;-78
2024/03/18 01:03:40;;;;;;;21.00;13.00;;;15.80;99.90;;;;;;7380908;19;20369;-77
2024/03/18 01:06:08;;;;;;;31.85;14.23;;;15.90;99.90;;;;;;7402769;19;20023;-78
2024/03/18 01:08:40;;;;;;;25.90;13.75;;;15.80;99.90;;;;;;7379437;19;20010;-78
2024/03/18 01:11:08;;;;;;;27.77;15.90;;;15.80;99.90;;;;;;7381610;19;20002;-78
2024/03/18 01:13:39;;;;;;;29.17;14.15;;;15.80;99.90;;;;;;7385485;19;20518;-77
2024/03/18 01:16:07;;;;;;;30.48;14.98;;;15.80;99.90;;;;;;7383378;19;20006;-78
2024/03/18 01:18:39;;;;;;;30.77;14.07;;;15.80;99.90;;;;;;7378408;19;20379;-77
2024/03/18 01:21:08;;;;;;;32.63;14.50;;;15.80;99.90;;;;;;7401591;19;20350;-78
2024/03/18 01:23:39;;;;;;;31.33;15.00;;;15.80;99.90;;;;;;7380856;19;20248;-79
2024/03/18 01:26:08;;;;;;;31.85;13.68;;;15.70;99.90;;;;;;7379748;19;20007;-78
2024/03/18 01:28:37;;;;;;;25.27;13.20;;;15.70;99.90;;;;;;7379020;19;19999;-77
2024/03/18 01:31:06;;;;;;;32.95;15.65;;;15.70;99.90;;;;;;7378948;19;20019;-77
2024/03/18 01:33:35;;;;;;;24.65;13.27;;;15.70;99.90;;;;;;7380591;19;20019;-77
2024/03/18 01:36:04;;;;;;;28.98;14.95;;;15.70;99.90;;;;;;7406095;19;20010;-76
2024/03/18 01:38:34;;;;;;;35.63;16.95;;;15.70;99.90;;;;;;7377921;19;20015;-77
2024/03/18 01:41:05;;;;;;;27.08;15.77;;;15.70;99.90;;;;;;7382729;19;20003;-78
2024/03/18 01:43:38;;;;;;;27.08;15.70;;;15.70;99.90;;;;;;7383856;19;20007;-77
2024/03/18 01:46:18;;;;;;;28.73;13.90;;;15.70;99.90;;;;;;7386536;19;20015;-78
2024/03/18 01:48:47;;;;;;;29.63;14.05;;;15.70;99.90;;;;;;7391534;19;20019;-78
2024/03/18 01:51:16;;;;;;;22.77;14.05;;;15.70;99.90;;;;;;7409413;19;20360;-78
2024/03/18 01:53:45;;;;;;;23.45;13.55;;;15.70;99.90;;;;;;7379613;19;20048;-76
2024/03/18 01:56:16;;;;;;;25.05;14.32;;;15.70;99.90;;;;;;7378808;19;20007;-77
2024/03/18 01:58:47;;;;;;;28.05;13.00;;;15.70;99.90;;;;;;7377741;19;20024;-77
2024/03/18 02:01:16;;;;;;;23.50;13.80;;;15.70;99.90;;;;;;7378386;19;20018;-77
2024/03/18 02:03:45;;;;;;;23.75;11.95;;;15.70;99.90;;;;;;7376031;19;20024;-77
2024/03/18 02:06:14;;;;;;;22.42;13.57;;;15.70;99.90;;;;;;7398102;19;20011;-77
2024/03/18 02:08:42;;;;;;;26.77;13.07;;;15.70;99.90;;;;;;7383741;19;20011;-77
2024/03/18 02:11:11;;;;;;;35.95;15.15;;;15.70;99.90;;;;;;7386038;19;20010;-77
2024/03/18 02:13:42;;;;;;;24.13;14.43;;;15.70;99.90;;;;;;7384860;19;20015;-77
2024/03/18 02:16:11;;;;;;;31.92;13.32;;;15.50;99.90;;;;;;7384447;19;20212;-78
2024/03/18 02:18:37;;;;;;;26.55;13.40;;;15.60;99.90;;;;;;7384099;19;20011;-78
2024/03/18 02:21:06;;;;;;;31.08;14.27;;;15.60;99.90;;;;;;7407881;19;20006;-78
2024/03/18 02:23:38;;;;;;;31.88;10.70;;;15.60;99.90;;;;;;7384527;19;20002;-78
2024/03/18 02:26:06;;;;;;;18.52;10.63;;;15.60;99.90;;;;;;7386535;19;20007;-78
2024/03/18 02:28:42;;;;;;;22.48;11.70;;;15.60;99.90;;;;;;7387634;19;20020;-78
2024/03/18 02:31:11;;;;;;;19.50;11.65;;;15.60;99.90;;;;;;7395510;19;20010;-78
2024/03/18 02:33:40;;;;;;;28.00;13.43;;;15.70;99.90;;;;;;7391921;19;20010;-77
2024/03/18 02:36:08;;;;;;;22.25;13.07;;;15.70;99.90;;;;;;7404251;19;20021;-77
2024/03/18 02:38:40;;;;;;;26.33;12.73;;;15.70;99.90;;;;;;7384169;19;20011;-78
2024/03/18 02:41:08;;;;;;;18.35;12.30;;;15.80;99.90;;;;;;7384383;19;20007;-77
2024/03/18 02:43:37;;;;;;;25.15;11.43;;;15.80;99.90;;;;;;7382510;19;20003;-77
2024/03/18 02:46:07;;;;;;;23.15;11.63;;;15.80;99.90;;;;;;7384429;19;20020;-77
2024/03/18 02:48:35;;;;;;;24.85;13.02;;;15.70;99.90;;;;;;7409567;19;20353;-77
2024/03/18 02:51:07;;;;;;;24.38;12.25;;;15.80;99.90;;;;;;7382807;19;20028;-77
2024/03/18 02:53:36;;;;;;;24.83;12.00;;;15.90;99.90;;;;;;7383118;19;20070;-77
2024/03/18 02:56:08;;;;;;;21.05;13.48;;;15.80;99.90;;;;;;7383002;19;20006;-77
2024/03/18 02:58:38;;;;;;;28.73;13.65;;;15.80;99.90;;;;;;7382320;19;20052;-77
2024/03/18 03:01:06;;;;;;;26.48;13.05;;;15.70;99.90;;;;;;7383652;19;20003;-77
2024/03/18 03:03:36;;;;;;;29.88;13.27;;;15.50;99.90;;;;;;7402319;19;20055;-77
2024/03/18 03:06:04;;;;;;;30.40;13.60;;;15.60;99.90;;;;;;7381346;19;20019;-78
2024/03/18 03:08:33;;;;;;;23.08;13.27;;;15.50;99.90;;;;;;7382717;19;20002;-77
2024/03/18 03:11:09;;;;;;;26.80;12.25;;;15.50;99.90;;;;;;7384254;19;20070;-77
2024/03/18 03:13:37;;;;;;;27.85;11.65;;;15.40;99.90;;;;;;7384534;19;20098;-77
2024/03/18 03:16:07;;;;;;;23.70;12.43;;;15.50;99.90;;;;;;7380979;19;20045;-77
2024/03/18 03:18:36;;;;;;;27.58;12.10;;;15.40;99.90;;;;;;7401572;19;20006;-78
2024/03/18 03:21:05;;;;;;;29.45;13.25;;;15.50;99.90;;;;;;7382773;19;20020;-77
2024/03/18 03:23:35;;;;;;;23.08;12.52;;;15.50;99.90;;;;;;7382309;19;20022;-77
2024/03/18 03:26:03;;;;;;;28.90;12.43;;;15.50;99.90;;;;;;7383988;19;20276;-77
2024/03/18 03:28:35;;;;;;;23.48;12.85;;;15.50;99.90;;;;;;7380776;19;20002;-78
2024/03/18 03:31:05;;;;;;;31.88;14.60;;;15.50;99.90;;;;;;7381994;19;20019;-77
2024/03/18 03:33:34;;;;;;;23.75;12.60;;;15.40;99.90;;;;;;7401239;19;20007;-77
2024/03/18 03:36:03;;;;;;;21.33;12.07;;;15.40;99.90;;;;;;7380197;19;20074;-77
2024/03/18 03:38:32;;;;;;;20.67;12.85;;;15.30;99.90;;;;;;7383809;19;20003;-77
2024/03/18 03:41:01;;;;;;;21.67;11.25;;;15.40;99.90;;;;;;7382817;19;20064;-77
2024/03/18 03:43:29;;;;;;;21.00;11.82;;;15.30;99.90;;;;;;7381442;19;20003;-77
2024/03/18 03:46:02;;;;;;;18.98;11.85;;;15.30;99.90;;;;;;7382260;19;20011;-77
2024/03/18 03:48:31;;;;;;;23.20;12.10;;;15.30;99.90;;;;;;7404158;19;20025;-77
2024/03/18 03:51:00;;;;;;;23.88;12.52;;;15.40;99.90;;;;;;7381672;19;20340;-77
2024/03/18 03:53:29;;;;;;;22.75;12.32;;;15.40;99.90;;;;;;7380939;19;20378;-77
2024/03/18 03:56:00;;;;;;;21.35;11.20;;;15.40;99.90;;;;;;7382089;19;20013;-78
2024/03/18 03:58:30;;;;;;;29.33;11.40;;;15.40;99.90;;;;;;7383966;19;20690;-78
2024/03/18 04:01:01;;;;;;;22.15;10.30;;;15.40;99.90;;;;;;7383011;19;20022;-78
2024/03/18 04:03:31;;;;;;;17.77;10.45;;;15.40;99.90;;;;;;7401107;19;20224;-77
2024/03/18 04:06:00;;;;;;;19.52;10.32;;;15.40;99.90;;;;;;7378929;19;20324;-77
2024/03/18 04:08:28;;;;;;;16.02;9.40;;;15.50;99.90;;;;;;7381493;19;20023;-77
2024/03/18 04:10:57;;;;;;;22.65;10.48;;;15.50;99.90;;;;;;7380796;19;20026;-78
2024/03/18 04:13:29;;;;;;;17.73;9.25;;;15.60;99.90;;;;;;7384307;19;20007;-77
2024/03/18 04:15:58;;;;;;;19.95;8.85;;;15.60;99.90;;;;;;7384247;19;20338;-77
2024/03/18 04:18:29;;;;;;;18.25;9.60;;;15.60;99.90;;;;;;7408059;19;20068;-78
2024/03/18 04:20:59;;;;;;;31.55;9.50;;;15.60;99.90;;;;;;7387775;19;20015;-77
2024/03/18 04:23:29;;;;;;;19.92;8.10;;;15.50;99.90;;;;;;7386342;19;20374;-77
2024/03/18 04:25:59;;;;;;;19.73;8.98;;;15.40;99.90;;;;;;7386111;19;20087;-77
2024/03/18 04:28:28;;;;;;;16.88;8.13;;;15.30;99.90;;;;;;7380793;19;20006;-77
2024/03/18 04:30:58;;;;;;;17.05;8.95;;;15.20;99.90;;;;;;7379923;19;20028;-77
2024/03/18 04:33:30;;;;;;;17.90;9.13;;;15.40;99.90;;;;;;7401031;19;20256;-77
2024/03/18 04:35:58;;;;;;;17.67;9.38;;;15.40;99.90;;;;;;7382088;19;20283;-78
2024/03/18 04:38:27;;;;;;;18.02;8.38;;;15.50;99.90;;;;;;7379316;19;20006;-77
2024/03/18 04:40:56;;;;;;;21.75;8.43;;;15.60;99.90;;;;;;7378558;19;20002;-76
2024/03/18 04:43:25;;;;;;;15.07;8.57;;;15.30;99.90;;;;;;7380562;19;20023;-77
2024/03/18 04:45:53;;;;;;;16.92;9.35;;;15.40;99.90;;;;;;7404391;19;20256;-77
2024/03/18 04:48:22;;;;;;;18.85;8.98;;;15.40;99.90;;;;;;7378697;19;20011;-76
2024/03/18 04:50:54;;;;;;;15.70;8.27;;;15.20;99.90;;;;;;7378690;19;20024;-76
2024/03/18 04:53:23;;;;;;;15.57;9.15;;;15.30;99.90;;;;;;7378902;19;20007;-76
2024/03/18 04:55:51;;;;;;;20.83;9.68;;;15.50;99.90;;;;;;7377643;19;20384;-77
2024/03/18 04:58:20;;;;;;;18.23;10.93;;;15.40;99.90;;;;;;7378140;19;20061;-77
2024/03/18 05:00:50;;;;;;;18.95;10.02;;;15.30;99.90;;;;;;7398216;19;20082;-77
2024/03/18 05:03:18;;;;;;;18.50;9.82;;;15.40;99.90;;;;;;7379344;19;20245;-77
2024/03/18 05:05:53;;;;;;;20.77;10.50;;;15.40;99.90;;;;;;7377848;19;20024;-77
2024/03/18 05:08:21;;;;;;;21.30;10.98;;;15.40;99.90;;;;;;7380560;19;20028;-77
2024/03/18 05:11:06;;;;;;;23.08;11.85;;;15.40;99.90;;;;;;7378770;19;20031;-77
2024/03/18 05:13:42;;;;;;;24.88;12.40;;;15.30;99.90;;;;;;7379001;19;20010;-76
2024/03/18 05:16:14;;;;;;;22.92;12.48;;;15.40;99.90;;;;;;7378518;19;20039;-77
2024/03/18 05:18:43;;;;;;;25.65;11.77;;;15.40;99.90;;;;;;7403447;19;20010;-77
2024/03/18 05:21:39;;;;;;;;;;;;;;;;;;;;;
2024/03/18 05:24:16;;;;;;;23.98;14.00;;;15.40;99.90;;;;;;7380603;19;20011;-77
2024/03/18 05:26:45;;;;;;;26.02;13.13;;;15.30;99.90;;;;;;7380413;19;20111;-78
2024/03/18 05:29:29;;;;;;;23.02;13.45;;;15.20;99.90;;;;;;7380998;19;20051;-77
2024/03/18 05:31:58;;;;;;;26.45;13.73;;;15.00;99.90;;;;;;7379793;19;20105;-78
2024/03/18 05:34:26;;;;;;;23.75;13.02;;;15.10;99.90;;;;;;7378325;19;20006;-78
2024/03/18 05:36:58;;;;;;;24.60;13.80;;;15.10;99.90;;;;;;7399213;19;20007;-78
2024/03/18 05:39:27;;;;;;;29.02;13.13;;;15.20;99.90;;;;;;7379009;19;20002;-77
2024/03/18 05:41:56;;;;;;;24.70;13.15;;;15.20;99.90;;;;;;7377429;19;20020;-77
2024/03/18 05:44:24;;;;;;;26.40;13.63;;;15.10;99.90;;;;;;7379536;19;20010;-78
2024/03/18 05:46:53;;;;;;;21.33;12.82;;;15.00;99.90;;;;;;7378132;19;20095;-78
2024/03/18 05:49:22;;;;;;;21.35;12.38;;;15.00;99.90;;;;;;7378720;19;20023;-78
2024/03/18 05:51:52;;;;;;;25.67;13.57;;;15.00;99.90;;;;;;7403427;19;20006;-77
2024/03/18 05:54:23;;;;;;;31.80;13.82;;;15.10;99.90;;;;;;7379891;19;20028;-77
2024/03/18 05:56:53;;;;;;;23.90;13.10;;;14.90;99.90;;;;;;7376965;19;20039;-77
2024/03/18 05:59:22;;;;;;;24.20;14.10;;;14.90;99.90;;;;;;7377600;19;20231;-78
2024/03/18 06:01:51;;;;;;;28.55;13.70;;;14.80;99.90;;;;;;7379762;19;20011;-79
2024/03/18 06:04:21;;;;;;;24.40;13.43;;;14.70;99.90;;;;;;7381068;19;20020;-78
2024/03/18 06:06:50;;;;;;;25.05;13.73;;;14.80;99.90;;;;;;7401317;19;20066;-78
2024/03/18 06:09:19;;;;;;;25.85;14.00;;;14.90;99.90;;;;;;7377563;19;20066;-77
2024/03/18 06:11:50;;;;;;;32.25;15.20;;;14.90;99.90;;;;;;7378151;19;20014;-77
2024/03/18 06:14:19;;;;;;;;;;;14.90;99.90;;;;;;7378973;19;20548;-78
2024/03/18 06:16:47;;;;;;;28.80;13.65;;;15.00;99.90;;;;;;7377222;19;19911;-78
2024/03/18 06:19:17;;;;;;;28.10;15.13;;;14.90;99.90;;;;;;7377445;19;20042;-78
2024/03/18 06:21:48;;;;;;;36.80;14.45;;;15.00;99.90;;;;;;7397281;19;20013;-78
2024/03/18 06:24:22;;;;;;;29.73;14.95;;;14.90;99.90;;;;;;7376693;19;20410;-78
2024/03/18 06:26:51;;;;;;;28.85;15.50;;;14.90;99.90;;;;;;7376293;19;20027;-77
2024/03/18 06:29:20;;;;;;;31.63;15.52;;;14.90;99.90;;;;;;7378452;19;20035;-78
2024/03/18 06:31:49;;;;;;;34.70;15.02;;;14.90;99.90;;;;;;7378974;19;20006;-78
2024/03/18 06:34:18;;;;;;;32.30;15.43;;;14.90;99.90;;;;;;7376691;19;20452;-78
2024/03/18 06:36:47;;;;;;;41.90;14.30;;;15.00;99.90;;;;;;7398480;19;20007;-79
2024/03/18 06:39:17;;;;;;;25.13;15.13;;;15.00;99.90;;;;;;7377804;19;20049;-79
2024/03/18 06:41:45;;;;;;;31.40;14.93;;;15.00;99.90;;;;;;7378905;19;20036;-78
2024/03/18 06:44:16;;;;;;;27.90;14.60;;;15.10;99.90;;;;;;7376975;19;20002;-77
2024/03/18 06:46:45;;;;;;;31.98;16.80;;;15.20;99.90;;;;;;7380977;19;20359;-78
2024/03/18 06:49:14;;;;;;;30.75;14.90;;;15.20;99.90;;;;;;7379459;19;20017;-78
2024/03/18 06:51:43;;;;;;;29.92;14.70;;;15.30;99.90;;;;;;7414735;19;20060;-78
2024/03/18 06:54:13;;;;;;;26.63;14.45;;;15.20;99.90;;;;;;7389609;19;20024;-78
2024/03/18 06:56:42;;;;;;;246.75;33.15;;;15.30;99.90;;;;;;7394639;19;20082;-78
2024/03/18 06:59:10;;;;;;;1999.90;126.47;;;15.40;99.90;;;;;;7396661;19;20002;-78
2024/03/18 07:01:42;;;;;;;129.20;23.73;;;15.40;99.90;;;;;;7399027;19;20040;-79
2024/03/18 07:04:10;;;;;;;33.22;15.45;;;15.50;99.90;;;;;;7411534;19;20010;-79
2024/03/18 07:06:40;;;;;;;30.77;15.43;;;15.50;99.90;;;;;;7385350;19;20461;-78
2024/03/18 07:09:09;;;;;;;27.98;13.82;;;15.50;99.90;;;;;;7384648;19;20007;-78
2024/03/18 07:11:37;;;;;;;28.45;13.68;;;15.60;99.90;;;;;;7384838;19;20052;-78
2024/03/18 07:14:06;;;;;;;27.73;14.65;;;15.70;99.90;;;;;;7384726;19;20010;-78
2024/03/18 07:16:35;;;;;;;23.60;13.32;;;15.60;99.90;;;;;;7384466;19;20012;-78
2024/03/18 07:19:06;;;;;;;26.63;12.85;;;15.60;99.90;;;;;;7406744;19;20021;-78
2024/03/18 07:21:35;;;;;;;27.88;12.10;;;15.70;99.90;;;;;;7383141;19;20221;-78
2024/03/18 07:24:04;;;;;;;31.50;11.98;;;15.70;99.90;;;;;;7383557;19;20010;-78
2024/03/18 07:26:33;;;;;;;25.85;9.75;;;15.80;99.90;;;;;;7382833;19;19999;-78
2024/03/18 07:29:03;;;;;;;14.23;9.38;;;15.80;99.90;;;;;;7383783;19;20007;-78
2024/03/18 07:31:32;;;;;;;19.77;8.98;;;15.80;99.90;;;;;;7381888;19;20026;-78
2024/03/18 07:34:01;;;;;;;22.30;7.38;;;15.80;99.90;;;;;;7404843;19;20031;-78
2024/03/18 07:36:34;;;;;;;23.80;7.13;;;15.70;99.90;;;;;;7386038;19;20007;-78
2024/03/18 07:39:04;;;;;;;16.65;6.70;;;15.70;99.90;;;;;;7388591;19;20031;-78
2024/03/18 07:41:35;;;;;;;17.63;5.65;;;15.80;99.90;;;;;;7390955;19;20245;-78
2024/03/18 07:44:04;;;;;;;16.13;6.57;;;15.90;99.90;;;;;;7382384;19;20062;-77
2024/03/18 07:46:32;;;;;;;15.88;5.30;;;15.80;99.90;;;;;;7381326;19;20284;-77
2024/03/18 07:49:01;;;;;;;18.60;5.78;;;15.80;99.90;;;;;;7404224;19;20011;-77
2024/03/18 07:51:32;;;;;;;15.10;4.85;;;15.60;99.90;;;;;;7383661;19;20071;-77
2024/03/18 07:54:01;;;;;;;14.82;4.88;;;15.70;99.90;;;;;;7384665;19;20003;-77
2024/03/18 07:56:31;;;;;;;12.52;4.82;;;15.80;99.90;;;;;;7381739;19;20010;-77
2024/03/18 07:59:00;;;;;;;14.65;5.18;;;15.70;99.90;;;;;;7384655;19;20010;-77
2024/03/18 08:01:29;;;;;;;13.95;5.13;;;15.70;99.90;;;;;;7382805;19;20007;-77
2024/03/18 08:03:58;;;;;;;16.13;5.55;;;15.70;99.90;;;;;;7403019;19;20028;-77
2024/03/18 08:06:26;;;;;;;19.77;6.03;;;15.90;99.90;;;;;;7383959;19;20014;-77
2024/03/18 08:08:58;;;;;;;21.30;5.45;;;15.70;99.90;;;;;;7381510;19;20003;-78
2024/03/18 08:11:26;;;;;;;8.88;5.25;;;15.80;99.90;;;;;;7383327;19;20343;-78
2024/03/18 08:13:55;;;;;;;20.65;5.78;;;15.90;99.90;;;;;;7383003;19;20472;-78
2024/03/18 08:16:24;;;;;;;13.32;5.72;;;16.00;99.90;;;;;;7392367;19;20015;-78
2024/03/18 08:18:55;;;;;;;19.08;6.25;;;15.90;99.90;;;;;;7407476;19;20003;-77
2024/03/18 08:21:24;;;;;;;17.98;5.60;;;15.90;99.90;;;;;;7383836;19;20358;-78
2024/03/18 08:23:52;;;;;;;16.70;5.93;;;15.90;99.90;;;;;;7382162;19;20019;-78
2024/03/18 08:26:24;;;;;;;19.95;5.78;;;16.00;99.90;;;;;;7381956;19;20027;-78
2024/03/18 08:28:52;;;;;;;13.15;5.57;;;16.00;99.90;;;;;;7384436;19;20097;-77
2024/03/18 08:31:21;;;;;;;13.82;5.60;;;16.20;99.90;;;;;;7401302;19;20015;-78
2024/03/18 08:33:50;;;;;;;17.02;5.85;;;16.20;99.90;;;;;;7381238;19;20011;-78
2024/03/18 08:36:19;;;;;;;12.85;5.43;;;16.20;99.90;;;;;;7380219;19;19999;-77
2024/03/18 08:38:48;;;;;;;13.52;5.57;;;16.20;99.90;;;;;;7379513;19;20010;-77
2024/03/18 08:41:18;;;;;;;16.05;5.40;;;16.20;99.90;;;;;;7382060;19;20392;-78
2024/03/18 08:43:50;;;;;;;11.80;5.15;;;16.30;99.90;;;;;;7382426;19;20003;-78
2024/03/18 08:46:18;;;;;;;17.60;4.57;;;16.20;99.90;;;;;;7401749;19;20419;-78
2024/03/18 08:48:47;;;;;;;17.10;3.35;;;16.40;99.90;;;;;;7379952;19;20241;-78
2024/03/18 08:51:16;;;;;;;13.35;2.85;;;16.40;99.90;;;;;;7381761;19;20011;-77
2024/03/18 08:53:46;;;;;;;16.50;2.53;;;16.40;99.90;;;;;;7379831;19;20007;-79
2024/03/18 08:56:15;;;;;;;14.00;2.88;;;16.50;99.90;;;;;;7382844;19;20003;-78
2024/03/18 08:58:43;;;;;;;11.00;2.08;;;16.40;99.90;;;;;;7383583;19;20003;-77
2024/03/18 09:01:15;;;;;;;11.85;2.33;;;16.30;99.90;;;;;;7401247;19;20066;-77
2024/03/18 09:03:43;;;;;;;17.05;2.40;;;16.40;99.90;;;;;;7378760;19;19998;-77
2024/03/18 09:06:12;;;;;;;15.30;2.38;;;16.50;99.90;;;;;;7380206;19;20350;-77
2024/03/18 09:08:45;;;;;;;13.18;3.10;;;16.50;99.90;;;;;;7377925;19;20007;-78
2024/03/18 09:11:13;;;;;;;8.90;2.45;;;16.60;99.90;;;;;;7378475;19;20300;-78
2024/03/18 09:13:43;;;;;;;6.45;2.72;;;16.50;99.90;;;;;;7380832;19;20020;-78
2024/03/18 09:16:14;;;;;;;13.98;2.15;;;16.60;99.90;;;;;;7399671;19;20010;-77
2024/03/18 09:18:43;;;;;;;7.53;2.10;;;16.60;99.90;;;;;;7380777;19;20014;-78
2024/03/18 09:21:12;;;;;;;11.90;2.40;;;16.50;99.90;;;;;;7377915;19;20014;-77
2024/03/18 09:23:40;;;;;;;9.30;2.05;;;16.60;99.90;;;;;;7377832;19;20003;-76
2024/03/18 09:26:09;;;;;;;10.75;1.98;;;16.70;99.90;;;;;;7378970;19;20011;-78
2024/03/18 09:28:39;;;;;;;8.35;1.77;;;16.80;99.90;;;;;;7378887;19;20011;-75
2024/03/18 09:31:08;;;;;;;9.57;2.35;;;16.60;99.90;;;;;;7401884;19;19998;-76
2024/03/18 09:33:39;;;;;;;7.55;2.08;;;16.70;99.90;;;;;;7383984;19;20027;-77
2024/03/18 09:36:09;;;;;;;5.85;1.83;;;16.70;99.90;;;;;;7384110;19;20026;-76
2024/03/18 09:38:38;;;;;;;9.57;2.38;;;16.80;99.90;;;;;;7382136;19;20302;-77
2024/03/18 09:41:08;;;;;;;11.15;2.38;;;16.70;99.90;;;;;;7379541;19;20029;-75
2024/03/18 09:43:38;;;;;;;14.02;2.45;;;16.80;99.90;;;;;;7383074;19;20011;-76
2024/03/18 09:46:08;;;;;;;11.50;2.50;;;16.80;99.90;;;;;;7397481;19;20070;-76
2024/03/18 09:48:40;;;;;;;13.80;2.40;;;16.70;99.90;;;;;;7378382;19;20006;-76
2024/03/18 09:51:14;;;;;;;10.32;2.20;;;16.70;99.90;;;;;;7380475;19;20015;-73
2024/03/18 09:53:44;;;;;;;10.82;2.28;;;16.80;99.90;;;;;;7380244;19;20418;-76
2024/03/18 09:56:13;;;;;;;11.98;2.50;;;16.90;99.90;;;;;;7380809;19;20299;-76
2024/03/18 09:58:42;;;;;;;9.55;2.50;;;16.90;99.90;;;;;;7377912;19;20011;-75
2024/03/18 10:01:14;;;;;;;11.48;2.47;;;17.00;99.90;;;;;;7398172;19;20422;-76
2024/03/18 10:03:45;;;;;;;9.27;2.72;;;17.00;99.90;;;;;;7377531;19;19999;-76
2024/03/18 10:06:17;;;;;;;10.85;2.22;;;17.00;99.90;;;;;;7375801;19;20070;-75
2024/03/18 10:08:46;;;;;;;10.55;2.75;;;17.00;99.90;;;;;;7377555;19;20002;-75
2024/03/18 10:11:16;;;;;;;12.88;2.80;;;17.20;99.90;;;;;;7378283;19;20011;-75
2024/03/18 10:13:45;;;;;;;10.73;2.33;;;17.30;99.90;;;;;;7380428;19;20527;-75
2024/03/18 10:16:16;;;;;;;7.75;2.42;;;17.30;99.90;;;;;;7400749;19;20002;-75
2024/03/18 10:18:48;;;;;;;10.30;2.00;;;17.30;99.90;;;;;;7374145;19;20061;-75
2024/03/18 10:21:17;;;;;;;7.20;2.17;;;17.30;99.90;;;;;;7377952;19;20069;-75
2024/03/18 10:23:48;;;;;;;12.10;2.35;;;17.30;99.90;;;;;;7378204;19;20019;-74
2024/03/18 10:26:17;;;;;;;;;;;17.40;99.90;;;;;;7376833;19;20007;-74
2024/03/18 10:28:47;;;;;;;6.10;2.17;;;17.40;99.90;;;;;;7379464;19;19907;-75
2024/03/18 10:31:17;;;;;;;11.27;2.20;;;17.40;99.90;;;;;;7404416;19;20359;-75
2024/03/18 10:33:50;;;;;;;9.52;2.35;;;17.40;99.90;;;;;;7382696;19;20074;-75
2024/03/18 10:36:26;;;;;;;13.27;2.40;;;17.30;99.90;;;;;;7383061;19;20003;-75
2024/03/18 10:39:04;;;;;;;9.18;2.15;;;17.30;99.90;;;;;;7381830;19;20292;-74
2024/03/18 10:41:38;;;;;;;8.77;1.58;;;17.40;99.90;;;;;;7382942;19;20211;-76
2024/03/18 10:44:17;;;;;;;11.88;2.20;;;17.40;99.90;;;;;;7385301;19;20002;-74
2024/03/18 10:46:46;;;;;;;7.43;2.00;;;17.30;99.90;;;;;;7382777;19;20032;-75
2024/03/18 10:49:20;;;;;;;10.02;1.67;;;17.50;99.90;;;;;;7404810;19;20015;-74
2024/03/18 10:51:49;;;;;;;7.47;1.88;;;17.60;99.90;;;;;;7383180;19;20021;-74
2024/03/18 10:54:19;;;;;;;6.70;2.03;;;17.60;99.90;;;;;;7383202;19;20245;-74
2024/03/18 10:56:49;;;;;;;5.30;1.83;;;17.70;99.90;;;;;;7382654;19;20424;-75
2024/03/18 10:59:20;;;;;;;4.80;1.60;;;17.80;99.90;;;;;;7380261;19;20045;-74
2024/03/18 11:01:49;;;;;;;;;;;17.90;99.90;;;;;;7387599;19;20042;-74
2024/03/18 11:04:21;;;;;;;8.45;2.20;;;18.00;99.90;;;;;;7403604;19;19910;-75
2024/03/18 11:06:55;;;;;;;8.23;1.85;;;18.10;99.90;;;;;;7381648;19;20022;-75
2024/03/18 11:09:26;;;;;;;5.97;1.83;;;18.10;99.90;;;;;;7381630;19;20010;-75
2024/03/18 11:11:55;;;;;;;6.30;1.73;;;18.00;99.90;;;;;;7382213;19;20403;-75
2024/03/18 11:14:28;;;;;;;7.07;1.85;;;18.00;99.90;;;;;;7386976;19;20007;-74
2024/03/18 11:16:57;;;;;;;6.47;2.10;;;18.10;99.90;;;;;;7381903;19;20367;-74
2024/03/18 11:19:30;;;;;;;9.27;1.77;;;18.10;99.90;;;;;;7403824;19;20288;-75
2024/03/18 11:22:04;;;;;;;15.80;2.08;;;18.10;99.90;;;;;;7381344;19;20287;-74
2024/03/18 11:24:34;;;;;;;9.70;2.00;;;18.00;99.90;;;;;;7381461;19;19998;-75
2024/03/18 11:27:04;;;;;;;11.07;2.05;;;18.00;99.90;;;;;;7381707;19;20019;-74
2024/03/18 11:29:38;;;;;;;8.75;2.10;;;17.90;99.90;;;;;;7379963;19;20007;-74
2024/03/18 11:32:11;;;;;;;10.25;1.95;;;17.80;99.90;;;;;;7382956;19;20079;-75
2024/03/18 11:34:43;;;;;;;9.00;1.90;;;17.90;99.90;;;;;;7406087;19;20010;-75
2024/03/18 11:37:12;;;;;;;9.75;1.90;;;17.90;99.90;;;;;;7380926;19;20007;-75
2024/03/18 11:39:41;;;;;;;12.40;2.42;;;18.00;99.90;;;;;;7379013;19;20227;-75
2024/03/18 11:42:09;;;;;;;6.25;2.00;;;18.10;99.90;;;;;;7381968;19;20011;-75
2024/03/18 11:44:38;;;;;;;5.70;2.10;;;18.10;99.90;;;;;;7383680;19;20010;-74
2024/03/18 11:47:08;;;;;;;10.23;2.40;;;18.10;99.90;;;;;;7380581;19;20023;-75
2024/03/18 11:49:37;;;;;;;7.93;2.20;;;18.00;99.90;;;;;;7399336;19;20425;-74
2024/03/18 11:52:11;;;;;;;10.70;2.10;;;18.10;99.90;;;;;;7382959;19;20010;-74
2024/03/18 11:54:40;;;;;;;5.25;1.70;;;18.10;99.90;;;;;;7379083;19;20023;-75
2024/03/18 11:57:12;;;;;;;11.32;2.05;;;18.10;99.90;;;;;;7379719;19;20010;-75
2024/03/18 11:59:42;;;;;;;10.23;2.40;;;18.20;99.90;;;;;;7380932;19;20007;-74
2024/03/18 12:02:11;;;;;;;6.78;2.03;;;18.20;99.90;;;;;;7380406;19;20356;-75
2024/03/18 12:04:40;;;;;;;10.40;1.80;;;18.20;99.90;;;;;;7401563;19;20248;-75
2024/03/18 12:07:13;;;;;;;8.57;1.38;;;18.20;99.90;;;;;;7387023;19;20003;-73
2024/03/18 12:09:42;;;;;;;7.32;1.35;;;18.30;99.90;;;;;;7384452;19;20007;-74
2024/03/18 12:12:11;;;;;;;9.45;1.52;;;18.40;99.90;;;;;;7380854;19;20002;-75
2024/03/18 12:14:40;;;;;;;3.97;1.05;;;18.40;99.90;;;;;;7381428;19;20040;-75
2024/03/18 12:17:12;;;;;;;4.28;0.65;;;18.40;99.90;;;;;;7381125;19;20023;-74
2024/03/18 12:19:50;;;;;;;6.97;1.23;;;18.30;99.90;;;;;;7400434;19;20014;-74
2024/03/18 12:22:25;;;;;;;11.73;0.88;;;18.40;99.90;;;;;;7380790;19;20007;-75
2024/03/18 12:30:24;;;;;;;2.20;0.80;;;18.60;99.90;;;;;;7379795;19;20003;-74
2024/03/18 12:32:53;;;;;;;11.60;1.30;;;18.70;99.90;;;;;;7379722;19;20335;-75
2024/03/18 12:35:22;;;;;;;5.85;0.93;;;18.70;99.90;;;;;;7380802;19;20078;-75
2024/03/18 12:37:55;;;;;;;4.80;0.93;;;18.80;99.90;;;;;;7400615;19;20006;-74
2024/03/18 12:40:25;;;;;;;3.10;1.00;;;18.70;99.90;;;;;;7379388;19;20017;-75
2024/03/18 12:42:56;;;;;;;8.27;1.30;;;18.80;99.90;;;;;;7381288;19;20071;-74
2024/03/18 12:45:27;;;;;;;3.25;1.00;;;18.70;99.90;;;;;;7381245;19;20003;-75
2024/03/18 12:47:55;;;;;;;6.10;1.23;;;18.70;99.90;;;;;;7384102;19;20252;-75
2024/03/18 12:50:25;;;;;;;3.58;0.88;;;18.70;99.90;;;;;;7379943;19;20019;-74
2024/03/18 12:53:01;;;;;;;5.60;1.30;;;18.60;99.90;;;;;;7401353;19;20019;-76
2024/03/18 12:55:30;;;;;;;3.83;1.10;;;18.50;99.90;;;;;;7381862;19;20011;-75
2024/03/18 12:57:59;;;;;;;3.70;1.13;;;18.50;99.90;;;;;;7378361;19;20029;-77